createdAt,value
2023-02-28T00:00:00.873Z,19.70
2023-02-28T00:03:03.304Z,19.70
2023-02-28T00:06:07.516Z,19.60
2023-02-28T00:09:09.523Z,19.60
2023-02-28T00:12:11.840Z,19.60
2023-02-28T00:15:14.220Z,19.70
2023-02-28T00:18:16.566Z,19.90
2023-02-28T00:21:20.657Z,20.00
2023-02-28T00:24:22.954Z,20.00
2023-02-28T00:27:24.919Z,19.90
2023-02-28T00:30:27.220Z,20.00
2023-02-28T00:33:30.034Z,20.00
2023-02-28T00:36:32.284Z,19.70
2023-02-28T00:39:38.949Z,19.70
2023-02-28T00:42:41.233Z,19.60
2023-02-28T00:45:43.368Z,19.60
2023-02-28T00:48:45.621Z,19.90
2023-02-28T00:51:47.842Z,20.10
2023-02-28T00:54:50.162Z,20.20
2023-02-28T00:57:52.133Z,20.20
2023-02-28T01:00:54.938Z,20.30
2023-02-28T01:03:56.980Z,20.30
2023-02-28T01:06:59.273Z,20.50
2023-02-28T01:10:01.277Z,20.80
2023-02-28T01:13:03.987Z,20.60
2023-02-28T01:16:06.556Z,20.20
2023-02-28T01:19:08.935Z,19.70
2023-02-28T01:22:11.100Z,19.40
2023-02-28T01:25:13.819Z,19.40
2023-02-28T01:28:15.967Z,19.00
2023-02-28T01:31:19.484Z,18.90
2023-02-28T01:34:21.598Z,18.80
2023-02-28T01:37:23.937Z,19.10
2023-02-28T01:40:26.080Z,18.80
2023-02-28T01:43:32.327Z,18.80
2023-02-28T01:46:36.798Z,18.80
2023-02-28T01:49:39.969Z,19.20
2023-02-28T01:52:42.696Z,19.30
2023-02-28T01:55:50.053Z,19.30
2023-02-28T01:58:53.544Z,19.30
2023-02-28T02:01:56.175Z,19.30
2023-02-28T02:05:02.752Z,19.10
2023-02-28T02:08:08.858Z,19.00
2023-02-28T02:11:13.884Z,19.90
2023-02-28T02:14:21.761Z,20.10
2023-02-28T02:17:33.814Z,20.00
2023-02-28T02:21:00.338Z,20.00
2023-02-28T02:24:21.127Z,19.50
2023-02-28T02:27:38.688Z,20.10
2023-02-28T02:30:45.172Z,20.70
2023-02-28T02:34:28.029Z,20.50
2023-02-28T02:37:54.800Z,20.50
2023-02-28T02:41:13.330Z,20.30
2023-02-28T02:44:45.582Z,20.10
2023-02-28T02:47:49.175Z,20.10
2023-02-28T02:50:55.116Z,20.50
2023-02-28T02:54:03.674Z,20.60
2023-02-28T02:57:11.176Z,20.50
2023-02-28T03:00:17.140Z,20.30
2023-02-28T03:03:21.720Z,20.10
2023-02-28T03:06:24.372Z,19.90
2023-02-28T03:09:27.360Z,20.20
2023-02-28T03:12:41.974Z,20.00
2023-02-28T03:16:24.196Z,19.20
2023-02-28T03:19:38.911Z,18.90
2023-02-28T03:22:43.693Z,18.40
2023-02-28T03:26:10.600Z,19.10
2023-02-28T03:29:13.911Z,19.20
2023-02-28T03:32:30.863Z,19.10
2023-02-28T03:35:39.027Z,18.30
2023-02-28T03:38:57.339Z,18.60
2023-02-28T03:42:03.115Z,18.40
2023-02-28T03:45:11.722Z,18.30
2023-02-28T03:48:30.893Z,18.30
2023-02-28T03:51:34.353Z,18.30
2023-02-28T03:55:01.547Z,18.40
2023-02-28T03:58:16.950Z,17.90
2023-02-28T04:01:28.393Z,17.90
2023-02-28T04:04:31.089Z,18.70
2023-02-28T04:07:33.184Z,18.70
2023-02-28T04:10:35.594Z,19.10
2023-02-28T04:13:37.538Z,18.30
2023-02-28T04:16:42.100Z,18.20
2023-02-28T04:19:44.277Z,19.20
2023-02-28T04:22:46.575Z,18.40
2023-02-28T04:25:48.617Z,18.10
2023-02-28T04:28:50.898Z,17.60
2023-02-28T04:31:58.911Z,17.80
2023-02-28T04:35:01.269Z,18.10
2023-02-28T04:38:03.239Z,17.70
2023-02-28T04:41:06.182Z,19.20
2023-02-28T04:44:08.312Z,19.40
2023-02-28T04:47:10.739Z,19.60
2023-02-28T04:50:12.733Z,19.90
2023-02-28T04:53:14.967Z,19.80
2023-02-28T04:56:18.639Z,19.80
2023-02-28T04:59:21.437Z,19.90
2023-02-28T05:02:24.786Z,19.60
2023-02-28T05:05:27.134Z,19.10
2023-02-28T05:08:31.262Z,18.50
2023-02-28T05:11:36.163Z,18.40
2023-02-28T05:14:38.274Z,18.30
2023-02-28T05:17:40.645Z,17.50
2023-02-28T05:20:42.636Z,17.50
2023-02-28T05:23:45.963Z,17.70
2023-02-28T05:26:49.429Z,17.70
2023-02-28T05:29:51.668Z,17.90
2023-02-28T05:32:53.809Z,18.30
2023-02-28T05:35:56.556Z,17.70
2023-02-28T05:38:58.577Z,18.80
2023-02-28T05:42:00.896Z,18.50
2023-02-28T05:45:02.882Z,17.50
2023-02-28T05:48:05.703Z,17.60
2023-02-28T05:51:08.978Z,17.40
2023-02-28T05:54:13.552Z,17.60
2023-02-28T05:57:24.342Z,17.40
2023-02-28T06:00:30.140Z,17.80
2023-02-28T06:03:32.283Z,18.80
2023-02-28T06:06:38.029Z,18.30
2023-02-28T06:09:40.106Z,17.50
2023-02-28T06:12:42.726Z,18.50
2023-02-28T06:15:44.794Z,18.30
2023-02-28T06:18:47.039Z,18.80
2023-02-28T06:21:52.063Z,18.60
2023-02-28T06:24:55.661Z,18.50
2023-02-28T06:27:57.857Z,18.70
2023-02-28T06:31:00.227Z,19.00
2023-02-28T06:34:02.315Z,19.00
2023-02-28T06:37:04.529Z,19.20
2023-02-28T06:40:07.920Z,19.30
2023-02-28T06:43:12.804Z,19.40
2023-02-28T06:46:15.653Z,19.60
2023-02-28T06:49:18.566Z,19.60
2023-02-28T06:52:20.560Z,19.50
2023-02-28T06:55:22.868Z,19.50
2023-02-28T06:58:24.968Z,19.50
2023-02-28T07:01:29.283Z,19.40
2023-02-28T07:04:31.657Z,19.60
2023-02-28T07:07:34.316Z,19.60
2023-02-28T07:10:38.799Z,19.80
2023-02-28T07:13:41.223Z,20.00
2023-02-28T07:16:43.224Z,20.10
2023-02-28T07:19:45.604Z,20.30
2023-02-28T07:22:52.890Z,20.50
2023-02-28T07:25:55.217Z,20.50
2023-02-28T07:28:57.178Z,20.30
2023-02-28T07:31:59.575Z,20.80
2023-02-28T07:35:01.566Z,20.60
2023-02-28T07:38:04.679Z,20.60
2023-02-28T07:41:06.742Z,20.40
2023-02-28T07:44:09.608Z,20.20
2023-02-28T07:47:11.772Z,20.40
2023-02-28T07:50:16.414Z,20.20
2023-02-28T07:53:18.634Z,20.20
2023-02-28T07:56:20.911Z,20.30
2023-02-28T07:59:23.069Z,20.10
2023-02-28T08:02:25.451Z,20.00
2023-02-28T08:05:27.530Z,20.10
2023-02-28T08:08:32.288Z,19.90
2023-02-28T08:11:34.600Z,19.90
2023-02-28T08:14:37.224Z,19.80
2023-02-28T08:17:39.334Z,19.70
2023-02-28T08:20:41.569Z,19.70
2023-02-28T08:23:43.556Z,19.10
2023-02-28T08:26:45.852Z,19.30
2023-02-28T08:29:47.984Z,19.30
2023-02-28T08:32:50.283Z,19.20
2023-02-28T08:35:56.456Z,19.20
2023-02-28T08:39:00.552Z,19.00
2023-02-28T08:42:07.479Z,19.00
2023-02-28T08:45:10.456Z,19.00
2023-02-28T08:48:12.592Z,19.00
2023-02-28T08:51:19.527Z,19.00
2023-02-28T08:54:21.897Z,18.70
2023-02-28T08:57:24.290Z,18.80
2023-02-28T09:00:26.400Z,18.30
2023-02-28T09:03:28.831Z,18.30
2023-02-28T09:06:31.111Z,18.20
2023-02-28T09:09:33.610Z,18.00
2023-02-28T09:12:36.536Z,18.80
2023-02-28T09:15:39.549Z,18.70
2023-02-28T09:18:42.190Z,19.40
2023-02-28T09:21:44.524Z,19.60
2023-02-28T09:24:46.492Z,19.70
2023-02-28T09:27:49.384Z,19.60
2023-02-28T09:30:54.922Z,19.20
2023-02-28T09:33:58.500Z,18.60
2023-02-28T09:37:00.662Z,18.90
2023-02-28T09:40:04.382Z,18.90
2023-02-28T09:43:07.325Z,18.20
2023-02-28T09:46:44.001Z,17.80
2023-02-28T09:49:48.783Z,17.90
2023-02-28T09:52:51.930Z,18.00
2023-02-28T09:56:00.258Z,17.90
2023-02-28T09:59:18.532Z,17.70
2023-02-28T10:02:44.357Z,17.40
2023-02-28T10:06:00.993Z,17.40
2023-02-28T10:09:14.408Z,17.50
2023-02-28T10:12:18.234Z,17.60
2023-02-28T10:15:24.311Z,17.80
2023-02-28T10:18:31.984Z,18.00
2023-02-28T10:21:48.800Z,17.90
2023-02-28T10:24:53.450Z,17.70
2023-02-28T10:28:06.221Z,18.00
2023-02-28T10:31:16.397Z,18.30
2023-02-28T10:34:18.473Z,18.10
2023-02-28T10:37:20.950Z,17.80
2023-02-28T10:40:43.336Z,17.30
2023-02-28T10:43:46.212Z,17.30
2023-02-28T10:46:49.203Z,18.10
2023-02-28T10:49:53.608Z,18.10
2023-02-28T10:52:56.147Z,17.90
2023-02-28T10:56:07.588Z,17.80
2023-02-28T10:59:09.567Z,18.10
2023-02-28T11:02:36.575Z,17.90
2023-02-28T11:05:38.976Z,17.50
2023-02-28T11:08:50.385Z,17.30
2023-02-28T11:11:53.922Z,17.30
2023-02-28T11:15:19.495Z,17.90
2023-02-28T11:18:50.090Z,18.10
2023-02-28T11:22:03.414Z,18.10
2023-02-28T11:25:17.178Z,18.70
2023-02-28T11:28:35.195Z,18.30
2023-02-28T11:31:37.294Z,18.40
2023-02-28T11:34:41.139Z,18.70
2023-02-28T11:37:43.591Z,18.10
2023-02-28T11:40:54.709Z,18.30
2023-02-28T11:44:14.640Z,18.20
2023-02-28T11:47:40.844Z,17.70
2023-02-28T11:51:22.816Z,17.40
2023-02-28T11:54:37.152Z,17.60
2023-02-28T11:57:57.241Z,17.70
2023-02-28T12:01:08.470Z,17.70
2023-02-28T12:04:22.304Z,18.00
2023-02-28T12:07:30.517Z,17.80
2023-02-28T12:11:13.363Z,17.40
2023-02-28T12:14:34.406Z,17.50
2023-02-28T12:18:00.807Z,17.60
2023-02-28T12:21:19.119Z,17.40
2023-02-28T12:24:32.992Z,18.20
2023-02-28T12:27:43.902Z,17.90
2023-02-28T12:31:14.859Z,17.90
2023-02-28T12:34:30.328Z,17.40
2023-02-28T12:37:42.101Z,17.20
2023-02-28T12:40:56.518Z,17.20
2023-02-28T12:44:15.567Z,17.90
2023-02-28T12:47:19.657Z,17.60
2023-02-28T12:50:23.748Z,17.50
2023-02-28T12:53:46.549Z,17.00
2023-02-28T12:56:57.134Z,16.90
2023-02-28T13:00:14.272Z,16.60
2023-02-28T13:03:48.440Z,16.60
2023-02-28T13:07:34.835Z,16.80
2023-02-28T13:10:56.612Z,16.70
2023-02-28T13:14:16.656Z,17.00
2023-02-28T13:17:23.133Z,17.00
2023-02-28T13:20:35.005Z,16.70
2023-02-28T13:23:52.343Z,16.90
2023-02-28T13:27:00.730Z,17.00
2023-02-28T13:30:23.768Z,17.10
2023-02-28T13:33:26.240Z,17.00
2023-02-28T13:36:33.552Z,17.10
2023-02-28T13:39:37.729Z,16.80
2023-02-28T13:42:53.628Z,16.60
2023-02-28T13:46:13.503Z,16.30
2023-02-28T13:49:30.459Z,16.40
2023-02-28T13:52:49.022Z,16.50
2023-02-28T13:56:35.789Z,16.90
2023-02-28T13:59:46.144Z,17.20
2023-02-28T14:03:22.029Z,17.40
2023-02-28T14:06:34.466Z,17.80
2023-02-28T14:09:47.322Z,17.90
2023-02-28T14:12:57.562Z,17.60
2023-02-28T14:16:05.129Z,17.60
2023-02-28T14:19:20.381Z,17.40
2023-02-28T14:23:03.402Z,17.20
2023-02-28T14:26:26.675Z,17.10
2023-02-28T14:29:43.422Z,17.40
2023-02-28T14:33:20.096Z,17.10
2023-02-28T14:36:34.527Z,17.30
2023-02-28T14:39:38.034Z,16.80
2023-02-28T14:42:44.790Z,17.00
2023-02-28T14:46:01.455Z,16.80
2023-02-28T14:49:07.230Z,17.00
2023-02-28T14:52:22.048Z,17.10
2023-02-28T14:55:37.708Z,17.40
2023-02-28T14:58:40.057Z,17.10
2023-02-28T15:01:42.426Z,16.90
2023-02-28T15:04:52.966Z,17.00
2023-02-28T15:08:17.099Z,16.90
2023-02-28T15:11:23.190Z,16.80
2023-02-28T15:14:29.021Z,16.80
2023-02-28T15:17:31.706Z,16.70
2023-02-28T15:20:34.397Z,16.80
2023-02-28T15:23:38.014Z,16.80
2023-02-28T15:26:44.341Z,16.80
2023-02-28T15:29:53.060Z,17.00
2023-02-28T15:33:20.031Z,16.80
2023-02-28T15:36:28.749Z,16.70
2023-02-28T15:39:32.308Z,16.70
2023-02-28T15:42:34.618Z,16.80
2023-02-28T15:45:57.240Z,16.70
2023-02-28T15:48:59.693Z,16.80
2023-02-28T15:52:02.157Z,16.60
2023-02-28T15:55:24.068Z,16.70
2023-02-28T15:58:26.592Z,16.80
2023-02-28T16:01:37.850Z,16.70
2023-02-28T16:05:10.921Z,16.90
2023-02-28T16:08:16.358Z,17.20
2023-02-28T16:11:19.949Z,17.00
2023-02-28T16:14:31.795Z,17.30
2023-02-28T16:17:39.673Z,17.10
2023-02-28T16:20:45.028Z,17.10
2023-02-28T16:23:48.510Z,17.10
2023-02-28T16:26:53.425Z,17.70
2023-02-28T16:29:55.775Z,17.80
2023-02-28T16:32:58.718Z,17.80
2023-02-28T16:36:10.132Z,17.70
2023-02-28T16:39:12.786Z,17.40
2023-02-28T16:42:22.552Z,17.60
2023-02-28T16:45:28.766Z,17.60
2023-02-28T16:48:31.874Z,18.10
2023-02-28T16:51:35.886Z,17.80
2023-02-28T16:54:48.864Z,17.80
2023-02-28T16:58:08.783Z,17.80
2023-02-28T17:01:15.587Z,17.80
2023-02-28T17:04:19.530Z,17.90
2023-02-28T17:07:22.686Z,18.00
2023-02-28T17:10:40.063Z,18.10
2023-02-28T17:13:47.204Z,18.10
2023-02-28T17:17:02.855Z,18.20
2023-02-28T17:20:15.622Z,18.10
2023-02-28T17:23:25.178Z,18.10
2023-02-28T17:26:29.067Z,18.20
2023-02-28T17:29:34.716Z,18.20
2023-02-28T17:32:36.797Z,18.20
2023-02-28T17:35:41.316Z,18.20
2023-02-28T17:38:46.150Z,18.20
2023-02-28T17:41:56.160Z,18.20
2023-02-28T17:44:58.494Z,18.30
2023-02-28T17:48:15.620Z,18.50
2023-02-28T17:51:30.456Z,18.60
2023-02-28T17:54:54.058Z,18.50
2023-02-28T17:58:30.707Z,18.40
2023-02-28T18:05:05.439Z,18.50
2023-02-28T18:08:11.525Z,18.70
2023-02-28T18:11:18.333Z,18.80
2023-02-28T18:14:24.435Z,18.90
2023-02-28T18:17:27.345Z,18.80
2023-02-28T18:20:29.720Z,18.70
2023-02-28T18:23:32.238Z,18.60
2023-02-28T18:26:35.141Z,18.60
2023-02-28T18:29:39.581Z,18.40
2023-02-28T18:32:42.946Z,18.50
2023-02-28T18:35:44.983Z,18.70
2023-02-28T18:38:48.598Z,18.50
2023-02-28T18:41:50.590Z,18.60
2023-02-28T18:44:53.040Z,18.60
2023-02-28T18:47:55.417Z,18.70
2023-02-28T18:50:57.838Z,18.50
2023-02-28T18:54:13.583Z,18.60
2023-02-28T18:57:18.520Z,18.70
2023-02-28T19:00:36.890Z,18.70
2023-02-28T19:03:42.386Z,18.70
2023-02-28T19:06:48.981Z,18.40
2023-02-28T19:09:52.331Z,18.50
2023-02-28T19:12:57.621Z,18.60
2023-02-28T19:16:05.370Z,18.60
2023-02-28T19:19:07.383Z,18.60
2023-02-28T19:22:17.273Z,18.90
2023-02-28T19:25:26.783Z,18.80
2023-02-28T19:28:37.933Z,18.80
2023-02-28T19:31:40.111Z,18.70
2023-02-28T19:34:42.919Z,18.70
2023-02-28T19:37:45.053Z,18.70
2023-02-28T19:40:48.722Z,18.70
2023-02-28T19:43:52.604Z,18.70
2023-02-28T19:46:55.487Z,18.70
2023-02-28T19:49:58.103Z,18.70
2023-02-28T19:53:02.471Z,18.70
2023-02-28T19:56:04.904Z,18.70
2023-02-28T19:59:13.033Z,18.60
2023-02-28T20:02:24.202Z,18.60
2023-02-28T20:05:26.604Z,18.60
2023-02-28T20:08:29.183Z,18.70
2023-02-28T20:11:31.614Z,18.60
2023-02-28T20:14:33.624Z,18.70
2023-02-28T20:17:44.330Z,18.90
2023-02-28T20:20:47.239Z,18.90
2023-02-28T20:23:52.594Z,18.70
2023-02-28T20:26:59.260Z,19.40
2023-02-28T20:30:02.867Z,18.50
2023-02-28T20:33:04.894Z,18.60
2023-02-28T20:36:12.623Z,18.50
2023-02-28T20:39:20.926Z,18.30
2023-02-28T20:42:27.627Z,18.30
2023-02-28T20:45:32.048Z,18.50
2023-02-28T20:48:40.708Z,18.40
2023-02-28T20:51:44.551Z,18.40
2023-02-28T20:54:47.030Z,18.20
2023-02-28T20:57:52.893Z,18.70
2023-02-28T21:01:12.613Z,18.70
2023-02-28T21:04:20.089Z,18.90
2023-02-28T21:07:29.708Z,19.50
2023-02-28T21:10:32.885Z,18.70
2023-02-28T21:17:48.115Z,18.60
2023-02-28T21:21:10.819Z,18.50
2023-02-28T21:24:20.857Z,18.00
2023-02-28T21:27:28.315Z,18.50
2023-02-28T21:30:30.878Z,18.30
2023-02-28T21:33:33.774Z,18.30
2023-02-28T21:36:45.843Z,18.30
2023-02-28T21:39:48.084Z,18.30
2023-02-28T21:42:50.341Z,17.90
2023-02-28T21:45:52.448Z,18.10
2023-02-28T21:48:55.185Z,17.80
2023-02-28T21:51:57.484Z,18.10
2023-02-28T21:54:59.769Z,17.80
2023-02-28T21:58:03.834Z,18.60
2023-02-28T22:01:06.385Z,18.60
2023-02-28T22:04:10.528Z,18.50
2023-02-28T22:07:13.097Z,18.40
2023-02-28T22:10:15.208Z,17.70
2023-02-28T22:13:17.445Z,17.90
2023-02-28T22:16:21.438Z,18.30
2023-02-28T22:19:25.492Z,18.20
2023-02-28T22:22:28.600Z,18.40
2023-02-28T22:25:30.813Z,18.30
2023-02-28T22:28:33.144Z,18.00
2023-02-28T22:31:36.739Z,17.90
2023-02-28T22:34:38.784Z,17.50
2023-02-28T22:37:41.081Z,17.70
2023-02-28T22:40:43.144Z,17.90
2023-02-28T22:43:45.395Z,18.10
2023-02-28T22:46:53.089Z,18.40
2023-02-28T22:49:55.563Z,18.20
2023-02-28T22:52:57.567Z,18.60
2023-02-28T22:56:00.392Z,18.90
2023-02-28T22:59:03.904Z,19.10
2023-02-28T23:02:06.201Z,17.70
2023-02-28T23:05:08.744Z,18.60
2023-02-28T23:08:11.079Z,18.80
2023-02-28T23:11:23.078Z,18.70
2023-02-28T23:14:25.351Z,18.50
2023-02-28T23:17:27.416Z,18.50
2023-02-28T23:20:29.677Z,18.10
2023-02-28T23:23:32.003Z,18.10
2023-02-28T23:26:34.451Z,17.90
2023-02-28T23:29:36.959Z,18.00
2023-02-28T23:32:39.730Z,17.80
2023-02-28T23:35:41.776Z,17.60
2023-02-28T23:38:47.914Z,17.60
2023-02-28T23:41:50.653Z,17.60
2023-02-28T23:44:54.146Z,17.30
2023-02-28T23:47:56.229Z,17.50
2023-02-28T23:51:03.839Z,17.70
2023-02-28T23:54:06.606Z,17.90
2023-02-28T23:57:09.341Z,17.40
